createdAt,value
2018-11-02T00:00:51.897Z,995.41
2018-11-02T00:01:50.808Z,995.52
2018-11-02T00:02:47.981Z,995.53
2018-11-02T00:03:50.971Z,995.47
2018-11-02T00:04:49.393Z,995.52
2018-11-02T00:05:46.675Z,995.49
2018-11-02T00:06:47.409Z,995.49
2018-11-02T00:07:51.117Z,995.53
2018-11-02T00:08:51.178Z,995.55
2018-11-02T00:09:48.620Z,995.56
2018-11-02T00:10:46.534Z,995.49
2018-11-02T00:11:44.662Z,995.5
2018-11-02T00:12:47.475Z,995.61
2018-11-02T00:13:49.693Z,995.56
2018-11-02T00:14:47.397Z,995.7
2018-11-02T00:15:45.500Z,995.7
2018-11-02T00:16:43.432Z,995.69
2018-11-02T00:17:45.886Z,995.7
2018-11-02T00:18:45.979Z,995.73
2018-11-02T00:19:43.784Z,995.79
2018-11-02T00:20:52.769Z,995.79
2018-11-02T00:21:50.143Z,995.82
2018-11-02T00:22:51.618Z,995.77
2018-11-02T00:23:53.334Z,995.75
2018-11-02T00:24:50.819Z,995.72
2018-11-02T00:25:50.058Z,995.7
2018-11-02T00:26:47.670Z,995.75
2018-11-02T00:27:46.959Z,995.82
2018-11-02T00:28:46.706Z,995.82
2018-11-02T00:29:45.220Z,995.86
2018-11-02T00:30:42.527Z,995.91
2018-11-02T00:31:40.719Z,995.95
2018-11-02T00:32:45.247Z,995.91
2018-11-02T00:33:45.564Z,995.85
2018-11-02T00:34:43.913Z,995.98
2018-11-02T00:35:50.339Z,995.92
2018-11-02T00:36:49.245Z,995.89
2018-11-02T00:37:49.176Z,996
2018-11-02T00:38:54.004Z,995.98
2018-11-02T00:39:53.459Z,996.01
2018-11-02T00:40:53.476Z,995.98
2018-11-02T00:41:56.519Z,996.03
2018-11-02T00:42:55.570Z,996.08
2018-11-02T00:43:52.732Z,996.01
2018-11-02T00:44:51.630Z,996.07
2018-11-02T00:45:49.332Z,995.97
2018-11-02T00:46:46.828Z,995.98
2018-11-02T00:47:46.828Z,995.98
2018-11-02T00:48:45.431Z,996.04
2018-11-02T00:49:43.364Z,995.88
2018-11-02T00:50:43.492Z,995.91
2018-11-02T00:51:41.101Z,995.86
2018-11-02T00:52:41.024Z,995.92
2018-11-02T00:53:40.231Z,995.83
2018-11-02T00:54:45.170Z,995.78
2018-11-02T00:55:48.813Z,995.82
2018-11-02T00:56:54.722Z,995.76
2018-11-02T00:57:53.073Z,995.67
2018-11-02T00:58:55.448Z,995.75
2018-11-02T01:00:03.499Z,995.83
2018-11-02T01:01:08.285Z,995.86
2018-11-02T01:02:05.984Z,995.86
2018-11-02T01:03:04.879Z,995.92
2018-11-02T01:04:03.348Z,995.89
2018-11-02T01:05:05.552Z,995.95
2018-11-02T01:06:03.316Z,995.89
2018-11-02T01:07:12.497Z,995.89
2018-11-02T01:08:10.355Z,995.98
2018-11-02T01:09:09.611Z,995.94
2018-11-02T01:10:15.288Z,996.14
2018-11-02T01:11:14.482Z,996.1
2018-11-02T01:12:11.600Z,996.1
2018-11-02T01:13:10.186Z,996.14
2018-11-02T01:14:11.948Z,996.2
2018-11-02T01:15:14.522Z,996.29
2018-11-02T01:16:16.706Z,996.19
2018-11-02T01:17:14.906Z,996.28
2018-11-02T01:18:13.276Z,996.29
2018-11-02T01:19:12.014Z,996.26
2018-11-02T01:20:12.733Z,996.28
2018-11-02T01:21:10.046Z,996.28
2018-11-02T01:22:09.050Z,996.25
2018-11-02T01:23:10.865Z,996.29
2018-11-02T01:24:09.781Z,996.28
2018-11-02T01:25:10.270Z,996.37
2018-11-02T01:26:11.262Z,996.31
2018-11-02T01:27:08.843Z,996.34
2018-11-02T01:27:28.140Z,996.44
2018-11-02T01:28:40.472Z,996.42
2018-11-02T01:29:51.592Z,996.44
2018-11-02T01:30:50.031Z,996.38
2018-11-02T01:31:51.369Z,996.35
2018-11-02T01:32:52.452Z,996.41
2018-11-02T01:33:50.652Z,996.47
2018-11-02T01:34:50.875Z,996.49
2018-11-02T01:35:53.928Z,996.43
2018-11-02T01:36:51.452Z,996.47
2018-11-02T01:37:50.335Z,996.44
2018-11-02T01:38:50.886Z,996.56
2018-11-02T01:39:48.879Z,996.53
2018-11-02T01:40:45.990Z,996.55
2018-11-02T01:41:43.091Z,996.67
2018-11-02T01:42:49.817Z,996.59
2018-11-02T01:43:51.006Z,996.61
2018-11-02T01:44:48.715Z,996.72
2018-11-02T01:45:47.606Z,996.53
2018-11-02T01:46:48.277Z,996.65
2018-11-02T01:47:52.072Z,996.59
2018-11-02T01:48:52.175Z,996.67
2018-11-02T01:49:50.380Z,996.61
2018-11-02T01:50:50.162Z,996.59
2018-11-02T01:51:49.373Z,996.58
2018-11-02T01:52:52.547Z,996.59
2018-11-02T01:53:51.623Z,996.7
2018-11-02T01:54:49.338Z,996.67
2018-11-02T01:55:50.329Z,996.59
2018-11-02T01:56:48.836Z,996.61
2018-11-02T01:57:47.045Z,996.61
2018-11-02T01:58:46.171Z,996.67
2018-11-02T01:59:49.137Z,996.68
2018-11-02T02:00:52.329Z,996.68
2018-11-02T02:01:53.447Z,996.62
2018-11-02T02:02:56.313Z,996.59
2018-11-02T02:03:58.293Z,996.67
2018-11-02T02:04:55.517Z,996.61
2018-11-02T02:05:54.558Z,996.59
2018-11-02T02:06:51.858Z,996.59
2018-11-02T02:07:49.825Z,996.71
2018-11-02T02:08:48.538Z,996.64
2018-11-02T02:09:47.797Z,996.62
2018-11-02T02:10:47.956Z,996.77
2018-11-02T02:11:55.007Z,996.73
2018-11-02T02:12:52.716Z,996.86
2018-11-02T02:13:50.473Z,996.84
2018-11-02T02:14:47.856Z,996.83
2018-11-02T02:15:48.641Z,996.89
2018-11-02T02:16:47.651Z,996.84
2018-11-02T02:17:50.323Z,996.84
2018-11-02T02:18:49.141Z,996.89
2018-11-02T02:19:47.572Z,996.86
2018-11-02T02:20:45.548Z,996.92
2018-11-02T02:22:01.247Z,996.87
2018-11-02T02:22:59.946Z,996.9
2018-11-02T02:23:59.140Z,996.92
2018-11-02T02:24:57.646Z,996.96
2018-11-02T02:25:57.125Z,996.93
2018-11-02T02:26:55.530Z,996.87
2018-11-02T02:27:53.726Z,996.9
2018-11-02T02:28:52.601Z,996.93
2018-11-02T02:29:50.877Z,996.93
2018-11-02T02:30:49.743Z,996.92
2018-11-02T02:31:51.564Z,996.92
2018-11-02T02:32:50.148Z,996.95
2018-11-02T02:33:52.201Z,996.95
2018-11-02T02:34:49.595Z,997.04
2018-11-02T02:35:48.402Z,997.08
2018-11-02T02:37:01.071Z,996.96
2018-11-02T02:38:01.204Z,997.08
2018-11-02T02:39:06.272Z,996.98
2018-11-02T02:40:07.102Z,997.05
2018-11-02T02:41:07.612Z,997.05
2018-11-02T02:42:08.734Z,997.06
2018-11-02T02:43:11.753Z,997.12
2018-11-02T02:44:12.508Z,997.11
2018-11-02T02:45:09.520Z,997.06
2018-11-02T02:46:13.228Z,997.12
2018-11-02T02:47:10.708Z,997.11
2018-11-02T02:48:10.061Z,997.05
2018-11-02T02:49:10.173Z,997.2
2018-11-02T02:50:08.553Z,997.14
2018-11-02T02:51:08.344Z,997.23
2018-11-02T02:52:07.903Z,997.21
2018-11-02T02:53:06.106Z,997.27
2018-11-02T02:54:04.464Z,997.32
2018-11-02T02:55:12.368Z,997.29
2018-11-02T02:56:14.531Z,997.26
2018-11-02T02:57:17.497Z,997.32
2018-11-02T02:58:16.196Z,997.29
2018-11-02T02:59:16.696Z,997.4
2018-11-02T03:00:14.320Z,997.42
2018-11-02T03:01:16.832Z,997.4
2018-11-02T03:02:13.863Z,997.46
2018-11-02T03:03:12.068Z,997.45
2018-11-02T03:04:11.458Z,997.46
2018-11-02T03:05:08.514Z,997.51
2018-11-02T03:06:07.693Z,997.4
2018-11-02T03:07:06.058Z,997.46
2018-11-02T03:08:05.495Z,997.58
2018-11-02T03:09:02.981Z,997.57
2018-11-02T03:10:07.303Z,997.62
2018-11-02T03:11:04.915Z,997.62
2018-11-02T03:12:05.785Z,997.62
2018-11-02T03:13:03.851Z,997.68
2018-11-02T03:14:07.144Z,997.73
2018-11-02T03:15:07.716Z,997.64
2018-11-02T03:16:04.702Z,997.57
2018-11-02T03:17:01.775Z,997.64
2018-11-02T03:18:00.461Z,997.74
2018-11-02T03:19:02.060Z,997.58
2018-11-02T03:20:05.054Z,997.7
2018-11-02T03:21:04.722Z,997.79
2018-11-02T03:22:08.513Z,997.8
2018-11-02T03:23:06.891Z,997.71
2018-11-02T03:24:09.602Z,997.77
2018-11-02T03:25:09.335Z,997.71
2018-11-02T03:26:07.625Z,997.77
2018-11-02T03:27:07.009Z,997.83
2018-11-02T03:28:07.629Z,997.77
2018-11-02T03:29:10.270Z,997.82
2018-11-02T03:30:16.256Z,997.88
2018-11-02T03:31:17.237Z,997.97
2018-11-02T03:32:15.875Z,997.88
2018-11-02T03:33:13.382Z,997.89
2018-11-02T03:34:10.747Z,997.83
2018-11-02T03:35:15.260Z,997.89
2018-11-02T03:36:12.501Z,997.88
2018-11-02T03:37:10.024Z,997.94
2018-11-02T03:38:07.100Z,998
2018-11-02T03:39:06.300Z,997.95
2018-11-02T03:40:04.539Z,998.09
2018-11-02T03:41:07.639Z,998.03
2018-11-02T03:42:07.523Z,998.04
2018-11-02T03:43:05.435Z,997.92
2018-11-02T03:44:08.634Z,998
2018-11-02T03:45:11.315Z,998.12
2018-11-02T03:46:17.938Z,998.04
2018-11-02T03:47:16.372Z,998.06
2018-11-02T03:48:14.126Z,998.01
2018-11-02T03:49:11.122Z,998.1
2018-11-02T03:50:12.286Z,998.23
2018-11-02T03:51:15.683Z,998.22
2018-11-02T03:52:14.119Z,998.23
2018-11-02T03:53:13.864Z,998.23
2018-11-02T03:54:12.285Z,998.31
2018-11-02T03:55:09.671Z,998.33
2018-11-02T03:56:08.276Z,998.31
2018-11-02T03:57:08.614Z,998.37
2018-11-02T03:58:10.862Z,998.42
2018-11-02T03:59:12.165Z,998.42
2018-11-02T04:00:15.601Z,998.5
2018-11-02T04:01:14.174Z,998.53
2018-11-02T04:02:12.850Z,998.47
2018-11-02T04:03:11.052Z,998.49
2018-11-02T04:04:11.608Z,998.44
2018-11-02T04:05:18.050Z,998.52
2018-11-02T04:06:15.834Z,998.58
2018-11-02T04:07:15.561Z,998.61
2018-11-02T04:08:14.842Z,998.62
2018-11-02T04:09:25.287Z,998.64
2018-11-02T04:10:29.562Z,998.59
2018-11-02T04:11:32.985Z,998.68
2018-11-02T04:12:33.022Z,998.64
2018-11-02T04:13:30.191Z,998.62
2018-11-02T04:14:30.963Z,998.64
2018-11-02T04:15:31.090Z,998.7
2018-11-02T04:16:29.967Z,998.77
2018-11-02T04:17:29.033Z,998.74
2018-11-02T04:18:26.844Z,998.8
2018-11-02T04:19:25.350Z,998.77
2018-11-02T04:20:22.753Z,998.78
2018-11-02T04:21:21.253Z,998.72
2018-11-02T04:22:18.324Z,998.72
2018-11-02T04:23:26.007Z,998.84
2018-11-02T04:24:26.246Z,998.77
2018-11-02T04:25:35.114Z,998.72
2018-11-02T04:26:32.070Z,998.72
2018-11-02T04:27:30.323Z,998.74
2018-11-02T04:28:30.662Z,998.8
2018-11-02T04:29:28.023Z,998.87
2018-11-02T04:30:29.927Z,998.87
2018-11-02T04:31:30.715Z,998.89
2018-11-02T04:32:28.453Z,998.89
2018-11-02T04:33:27.496Z,999.03
2018-11-02T04:34:24.840Z,999.06
2018-11-02T04:35:22.195Z,998.97
2018-11-02T04:36:21.510Z,999.03
2018-11-02T04:37:21.068Z,999.09
2018-11-02T04:38:20.606Z,999.09
2018-11-02T04:39:19.223Z,999.09
2018-11-02T04:40:24.548Z,999.12
2018-11-02T04:41:22.879Z,999.15
2018-11-02T04:42:21.467Z,999.2
2018-11-02T04:43:27.264Z,999.17
2018-11-02T04:44:24.291Z,999.24
2018-11-02T04:45:28.505Z,999.27
2018-11-02T04:46:26.239Z,999.2
2018-11-02T04:47:28.568Z,999.36
2018-11-02T04:48:29.161Z,999.3
2018-11-02T04:49:28.338Z,999.39
2018-11-02T04:50:29.730Z,999.42
2018-11-02T04:51:28.229Z,999.46
2018-11-02T04:52:35.387Z,999.4
2018-11-02T04:53:35.061Z,999.42
2018-11-02T04:54:33.242Z,999.37
2018-11-02T04:55:42.287Z,999.43
2018-11-02T04:56:39.853Z,999.52
2018-11-02T04:57:38.138Z,999.52
2018-11-02T04:58:38.146Z,999.52
2018-11-02T04:59:36.828Z,999.59
2018-11-02T05:00:42.031Z,999.68
2018-11-02T05:01:40.765Z,999.55
2018-11-02T05:02:40.568Z,999.58
2018-11-02T05:03:38.031Z,999.65
2018-11-02T05:04:36.833Z,999.72
2018-11-02T05:05:38.344Z,999.79
2018-11-02T05:06:38.146Z,999.76
2018-11-02T05:07:35.906Z,999.8
2018-11-02T05:08:35.219Z,999.73
2018-11-02T05:09:33.819Z,999.86
2018-11-02T05:10:33.953Z,999.89
2018-11-02T05:11:31.642Z,999.94
2018-11-02T05:12:29.290Z,999.95
2018-11-02T05:13:43.790Z,999.89
2018-11-02T05:14:44.434Z,999.89
2018-11-02T05:15:44.005Z,1000
2018-11-02T05:16:41.513Z,1000.02
2018-11-02T05:17:44.685Z,1000
2018-11-02T05:18:45.422Z,1000.04
2018-11-02T05:19:43.024Z,1000.04
2018-11-02T05:20:41.597Z,1000.08
2018-11-02T05:21:42.235Z,1000.13
2018-11-02T05:22:40.220Z,1000.1
2018-11-02T05:23:38.753Z,1000.05
2018-11-02T05:24:37.210Z,1000.16
2018-11-02T05:25:34.187Z,1000.19
2018-11-02T05:26:32.603Z,1000.11
2018-11-02T05:27:37.442Z,1000.23
2018-11-02T05:28:35.328Z,1000.22
2018-11-02T05:29:33.757Z,1000.25
2018-11-02T05:30:31.003Z,1000.25
2018-11-02T05:31:28.462Z,1000.3
2018-11-02T05:32:27.151Z,1000.36
2018-11-02T05:33:45.973Z,1000.44
2018-11-02T05:34:44.303Z,1000.35
2018-11-02T05:35:43.230Z,1000.48
2018-11-02T05:36:40.354Z,1000.45
2018-11-02T05:37:39.325Z,1000.48
2018-11-02T05:38:39.012Z,1000.52
2018-11-02T05:39:37.293Z,1000.48
2018-11-02T05:40:36.611Z,1000.54
2018-11-02T05:41:43.709Z,1000.51
2018-11-02T05:42:41.372Z,1000.66
2018-11-02T05:43:39.882Z,1000.67
2018-11-02T05:44:47.214Z,1000.7
2018-11-02T05:45:45.324Z,1000.66
2018-11-02T05:46:44.286Z,1000.67
2018-11-02T05:47:41.256Z,1000.77
2018-11-02T05:48:41.745Z,1000.7
2018-11-02T05:49:42.989Z,1000.7
2018-11-02T05:50:53.602Z,1000.84
2018-11-02T05:51:57.133Z,1000.82
2018-11-02T05:52:55.424Z,1000.93
2018-11-02T05:53:54.967Z,1000.94
2018-11-02T05:54:51.871Z,1001.02
2018-11-02T05:55:53.487Z,1000.93
2018-11-02T05:56:55.254Z,1001.13
2018-11-02T05:57:53.670Z,1001.03
2018-11-02T05:58:53.595Z,1001.16
2018-11-02T05:59:54.159Z,1001.13
2018-11-02T06:00:59.896Z,1001.07
2018-11-02T06:01:56.926Z,1001.1
2018-11-02T06:02:55.042Z,1001.16
2018-11-02T06:03:56.650Z,1001.22
2018-11-02T06:04:53.612Z,1001.21
2018-11-02T06:05:53.747Z,1001.3
2018-11-02T06:06:52.759Z,1001.27
2018-11-02T06:07:51.426Z,1001.21
2018-11-02T06:08:49.822Z,1001.3
2018-11-02T06:09:50.302Z,1001.28
2018-11-02T06:10:47.920Z,1001.27
2018-11-02T06:11:45.367Z,1001.22
2018-11-02T06:12:49.776Z,1001.32
2018-11-02T06:13:50.258Z,1001.37
2018-11-02T06:14:55.262Z,1001.41
2018-11-02T06:15:55.289Z,1001.34
2018-11-02T06:16:56.547Z,1001.32
2018-11-02T06:17:55.132Z,1001.44
2018-11-02T06:18:58.607Z,1001.35
2018-11-02T06:20:01.334Z,1001.35
2018-11-02T06:21:01.369Z,1001.4
2018-11-02T06:22:00.754Z,1001.38
2018-11-02T06:23:00.908Z,1001.46
2018-11-02T06:23:59.608Z,1001.41
2018-11-02T06:24:57.085Z,1001.31
2018-11-02T06:25:55.733Z,1001.41
2018-11-02T06:26:58.956Z,1001.35
2018-11-02T06:27:56.497Z,1001.49
2018-11-02T06:28:53.861Z,1001.46
2018-11-02T06:29:56.315Z,1001.48
2018-11-02T06:30:55.910Z,1001.52
2018-11-02T06:31:53.968Z,1001.56
2018-11-02T06:32:51.842Z,1001.65
2018-11-02T06:33:51.804Z,1001.64
2018-11-02T06:34:49.762Z,1001.67
2018-11-02T06:35:50.205Z,1001.74
2018-11-02T06:36:55.841Z,1001.73
2018-11-02T06:37:54.564Z,1001.86
2018-11-02T06:38:55.009Z,1001.8
2018-11-02T06:39:56.605Z,1001.84
2018-11-02T06:40:55.509Z,1001.83
2018-11-02T06:41:53.737Z,1001.86
2018-11-02T06:42:54.954Z,1001.93
2018-11-02T06:43:52.055Z,1001.89
2018-11-02T06:44:50.756Z,1001.92
2018-11-02T06:45:51.022Z,1001.99
2018-11-02T06:46:51.503Z,1002.04
2018-11-02T06:47:48.803Z,1001.98
2018-11-02T06:48:48.417Z,1002.01
2018-11-02T06:50:08.442Z,1002.01
2018-11-02T06:51:15.031Z,1002.08
2018-11-02T06:52:13.488Z,1002.08
2018-11-02T06:53:10.632Z,1002.06
2018-11-02T06:54:09.532Z,1002.15
2018-11-02T06:55:08.827Z,1002.12
2018-11-02T06:56:17.095Z,1002.26
2018-11-02T06:57:15.528Z,1002.2
2018-11-02T06:58:13.297Z,1002.28
2018-11-02T06:59:14.362Z,1002.28
2018-11-02T07:00:12.916Z,1002.31
2018-11-02T07:01:10.382Z,1002.34
2018-11-02T07:02:09.187Z,1002.27
2018-11-02T07:03:09.148Z,1002.37
2018-11-02T07:04:06.160Z,1002.37
2018-11-02T07:05:07.308Z,1002.46
2018-11-02T07:06:07.423Z,1002.48
2018-11-02T07:07:05.012Z,1002.54
2018-11-02T07:08:02.614Z,1002.45
2018-11-02T07:09:00.176Z,1002.55
2018-11-02T07:09:57.174Z,1002.67
2018-11-02T07:10:54.914Z,1002.62
2018-11-02T07:11:52.009Z,1002.59
2018-11-02T07:12:54.594Z,1002.7
2018-11-02T07:13:51.853Z,1002.59
2018-11-02T07:14:49.860Z,1002.65
2018-11-02T07:16:04.511Z,1002.73
2018-11-02T07:17:05.843Z,1002.65
2018-11-02T07:18:06.479Z,1002.77
2018-11-02T07:19:08.120Z,1002.77
2018-11-02T07:20:07.971Z,1002.8
2018-11-02T07:21:05.530Z,1002.81
2018-11-02T07:22:09.034Z,1002.81
2018-11-02T07:23:07.191Z,1002.81
2018-11-02T07:24:04.482Z,1002.87
2018-11-02T07:25:02.203Z,1002.86
2018-11-02T07:25:59.068Z,1002.89
2018-11-02T07:27:01.553Z,1002.94
2018-11-02T07:28:03.194Z,1002.88
2018-11-02T07:29:02.573Z,1002.97
2018-11-02T07:29:59.994Z,1002.91
2018-11-02T07:31:00.757Z,1002.98
2018-11-02T07:32:01.594Z,1002.94
2018-11-02T07:33:01.347Z,1003.01
2018-11-02T07:33:58.488Z,1003.01
2018-11-02T07:34:57.006Z,1003.1
2018-11-02T07:35:58.694Z,1003.04
2018-11-02T07:36:58.099Z,1003.08
2018-11-02T07:37:59.846Z,1003.1
2018-11-02T07:38:57.955Z,1003.05
2018-11-02T07:39:57.978Z,1003.1
2018-11-02T07:40:55.974Z,1003.07
2018-11-02T07:41:55.588Z,1003.11
2018-11-02T07:43:05.315Z,1003.07
2018-11-02T07:44:06.010Z,1003.1
2018-11-02T07:45:03.263Z,1003.13
2018-11-02T07:46:01.824Z,1003.2
2018-11-02T07:47:01.977Z,1003.16
2018-11-02T07:47:59.420Z,1003.23
2018-11-02T07:48:58.295Z,1003.19
2018-11-02T07:49:58.307Z,1003.23
2018-11-02T07:50:56.331Z,1003.17
2018-11-02T07:51:56.832Z,1003.22
2018-11-02T07:52:56.008Z,1003.25
2018-11-02T07:53:53.105Z,1003.32
2018-11-02T07:54:53.568Z,1003.35
2018-11-02T07:55:54.931Z,1003.38
2018-11-02T07:56:59.221Z,1003.37
2018-11-02T07:57:57.719Z,1003.41
2018-11-02T07:58:58.711Z,1003.4
2018-11-02T08:00:00.463Z,1003.35
2018-11-02T08:01:07.929Z,1003.46
2018-11-02T08:02:06.105Z,1003.43
2018-11-02T08:03:04.472Z,1003.4
2018-11-02T08:03:25.487Z,1003.37
2018-11-02T08:04:26.668Z,1003.43
2018-11-02T08:05:24.401Z,1003.37
2018-11-02T08:06:22.181Z,1003.35
2018-11-02T08:07:23.626Z,1003.37
2018-11-02T08:08:26.720Z,1003.35
2018-11-02T08:09:23.859Z,1003.45
2018-11-02T08:10:23.269Z,1003.41
2018-11-02T08:11:20.925Z,1003.44
2018-11-02T08:12:25.475Z,1003.41
2018-11-02T08:13:26.794Z,1003.47
2018-11-02T08:14:32.045Z,1003.36
2018-11-02T08:15:35.690Z,1003.38
2018-11-02T08:16:44.462Z,1003.38
2018-11-02T08:17:45.222Z,1003.39
2018-11-02T08:18:41.787Z,1003.36
2018-11-02T08:19:43.975Z,1003.48
2018-11-02T08:20:44.275Z,1003.4
2018-11-02T08:21:42.427Z,1003.43
2018-11-02T08:22:39.146Z,1003.51
2018-11-02T08:23:36.651Z,1003.49
2018-11-02T08:24:33.816Z,1003.43
2018-11-02T08:25:31.931Z,1003.61
2018-11-02T08:26:31.313Z,1003.52
2018-11-02T08:27:28.571Z,1003.5
2018-11-02T08:28:26.605Z,1003.65
2018-11-02T08:29:29.741Z,1003.65
2018-11-02T08:30:28.221Z,1003.65
2018-11-02T08:31:25.584Z,1003.65
2018-11-02T08:32:25.086Z,1003.55
2018-11-02T08:33:24.362Z,1003.68
2018-11-02T08:34:31.084Z,1003.72
2018-11-02T08:35:31.677Z,1003.72
2018-11-02T08:36:29.153Z,1003.63
2018-11-02T08:37:28.787Z,1003.66
2018-11-02T08:38:27.226Z,1003.63
2018-11-02T08:39:24.507Z,1003.62
2018-11-02T08:40:25.052Z,1003.66
2018-11-02T08:41:23.525Z,1003.7
2018-11-02T08:42:22.704Z,1003.63
2018-11-02T08:43:23.297Z,1003.62
2018-11-02T08:44:19.959Z,1003.67
2018-11-02T08:45:19.013Z,1003.65
2018-11-02T08:46:36.425Z,1003.66
2018-11-02T08:47:34.414Z,1003.78
2018-11-02T08:48:31.142Z,1003.73
2018-11-02T08:49:31.288Z,1003.73
2018-11-02T08:50:30.528Z,1003.7
2018-11-02T08:51:27.624Z,1003.81
2018-11-02T08:52:24.412Z,1003.84
2018-11-02T08:53:20.498Z,1003.85
2018-11-02T08:54:21.246Z,1003.87
2018-11-02T08:55:19.744Z,1003.82
2018-11-02T08:56:16.189Z,1003.82
2018-11-02T08:57:12.724Z,1003.88
2018-11-02T08:58:09.521Z,1003.79
2018-11-02T08:59:10.829Z,1003.82
2018-11-02T09:00:08.591Z,1003.85
2018-11-02T09:01:04.393Z,1003.85
2018-11-02T09:02:03.235Z,1003.9
2018-11-02T09:02:59.619Z,1003.77
2018-11-02T09:03:57.800Z,1003.82
2018-11-02T09:04:54.822Z,1003.88
2018-11-02T09:05:51.206Z,1003.75
2018-11-02T09:06:48.741Z,1003.88
2018-11-02T09:07:45.661Z,1003.9
2018-11-02T09:08:42.628Z,1004
2018-11-02T09:09:41.016Z,1003.91
2018-11-02T09:10:44.948Z,1003.88
2018-11-02T09:11:42.221Z,1004.02
2018-11-02T09:12:41.373Z,1003.96
2018-11-02T09:13:40.431Z,1004.02
2018-11-02T09:14:37.584Z,1004
2018-11-02T09:15:38.584Z,1004.09
2018-11-02T09:16:36.232Z,1004.06
2018-11-02T09:17:37.341Z,1003.99
2018-11-02T09:18:35.598Z,1004.09
2018-11-02T09:19:33.614Z,1004.06
2018-11-02T09:20:31.457Z,1004.09
2018-11-02T09:21:29.757Z,1004.15
2018-11-02T09:22:30.334Z,1004.11
2018-11-02T09:23:27.826Z,1004.12
2018-11-02T09:24:24.366Z,1004.3
2018-11-02T09:25:21.828Z,1004.24
2018-11-02T09:26:19.434Z,1004.27
2018-11-02T09:27:20.418Z,1004.21
2018-11-02T09:28:17.014Z,1004.24
2018-11-02T09:29:14.534Z,1004.25
2018-11-02T09:30:11.077Z,1004.27
2018-11-02T09:31:07.763Z,1004.25
2018-11-02T09:32:18.296Z,1004.33
2018-11-02T09:33:20.880Z,1004.25
2018-11-02T09:34:17.370Z,1004.39
2018-11-02T09:35:15.722Z,1004.33
2018-11-02T09:36:23.121Z,1004.28
2018-11-02T09:37:20.811Z,1004.27
2018-11-02T09:38:17.407Z,1004.36
2018-11-02T09:39:14.656Z,1004.27
2018-11-02T09:40:12.582Z,1004.36
2018-11-02T09:41:09.454Z,1004.42
2018-11-02T09:42:06.395Z,1004.46
2018-11-02T09:43:05.525Z,1004.45
2018-11-02T09:44:05.161Z,1004.43
2018-11-02T09:45:06.668Z,1004.52
2018-11-02T09:46:08.940Z,1004.52
2018-11-02T09:47:07.860Z,1004.48
2018-11-02T09:48:05.334Z,1004.59
2018-11-02T09:49:01.857Z,1004.58
2018-11-02T09:49:58.400Z,1004.58
2018-11-02T09:50:56.715Z,1004.7
2018-11-02T09:51:53.528Z,1004.59
2018-11-02T09:52:59.337Z,1004.62
2018-11-02T09:53:55.857Z,1004.64
2018-11-02T09:54:52.762Z,1004.64
2018-11-02T09:55:52.113Z,1004.62
2018-11-02T09:56:50.123Z,1004.71
2018-11-02T09:57:47.574Z,1004.65
2018-11-02T09:58:44.017Z,1004.65
2018-11-02T09:59:41.072Z,1004.67
2018-11-02T10:00:39.143Z,1004.76
2018-11-02T10:01:40.526Z,1004.73
2018-11-02T10:02:37.911Z,1004.76
2018-11-02T10:03:35.932Z,1004.82
2018-11-02T10:04:37.942Z,1004.87
2018-11-02T10:05:35.704Z,1004.91
2018-11-02T10:06:33.957Z,1004.84
2018-11-02T10:07:42.026Z,1004.82
2018-11-02T10:08:41.015Z,1004.81
2018-11-02T10:09:39.957Z,1004.84
2018-11-02T10:10:37.980Z,1004.82
2018-11-02T10:11:36.425Z,1004.92
2018-11-02T10:12:47.091Z,1004.91
2018-11-02T10:13:43.703Z,1004.97
2018-11-02T10:14:41.226Z,1004.94
2018-11-02T10:15:40.509Z,1004.95
2018-11-02T10:16:37.126Z,1004.98
2018-11-02T10:17:33.760Z,1004.85
2018-11-02T10:18:33.885Z,1004.88
2018-11-02T10:19:31.882Z,1004.94
2018-11-02T10:20:31.229Z,1004.97
2018-11-02T10:21:28.058Z,1004.95
2018-11-02T10:22:24.695Z,1004.87
2018-11-02T10:23:28.714Z,1004.93
2018-11-02T10:24:27.720Z,1005.03
2018-11-02T10:25:24.319Z,1004.97
2018-11-02T10:26:31.316Z,1004.94
2018-11-02T10:27:30.606Z,1004.95
2018-11-02T10:28:29.440Z,1004.96
2018-11-02T10:29:26.449Z,1005.03
2018-11-02T10:30:25.568Z,1005
2018-11-02T10:31:25.514Z,1004.98
2018-11-02T10:32:22.822Z,1005
2018-11-02T10:33:19.728Z,1005.07
2018-11-02T10:34:18.558Z,1005.12
2018-11-02T10:35:15.385Z,1005.15
2018-11-02T10:36:15.015Z,1005.13
2018-11-02T10:37:18.713Z,1005.16
2018-11-02T10:38:15.787Z,1005.09
2018-11-02T10:39:14.835Z,1005.13
2018-11-02T10:40:21.139Z,1005.09
2018-11-02T10:41:17.877Z,1005.18
2018-11-02T10:42:15.866Z,1005.09
2018-11-02T10:43:15.225Z,1005.08
2018-11-02T10:44:17.764Z,1005.08
2018-11-02T10:45:14.601Z,1005.08
2018-11-02T10:46:14.498Z,1005.17
2018-11-02T10:47:24.811Z,1005.15
2018-11-02T10:48:22.637Z,1005.29
2018-11-02T10:49:20.556Z,1005.26
2018-11-02T10:50:18.212Z,1005.27
2018-11-02T10:51:17.764Z,1005.24
2018-11-02T10:52:16.302Z,1005.3
2018-11-02T10:53:14.374Z,1005.24
2018-11-02T10:54:16.335Z,1005.27
2018-11-02T10:55:15.102Z,1005.35
2018-11-02T10:56:12.573Z,1005.35
2018-11-02T10:57:12.856Z,1005.32
2018-11-02T10:58:10.215Z,1005.36
2018-11-02T10:59:07.216Z,1005.39
2018-11-02T11:00:05.198Z,1005.35
2018-11-02T11:01:04.925Z,1005.48
2018-11-02T11:02:02.060Z,1005.38
2018-11-02T11:03:00.668Z,1005.47
2018-11-02T11:03:58.507Z,1005.44
2018-11-02T11:05:02.601Z,1005.43
2018-11-02T11:06:01.434Z,1005.46
2018-11-02T11:06:59.890Z,1005.4
2018-11-02T11:07:59.701Z,1005.49
2018-11-02T11:09:00.692Z,1005.37
2018-11-02T11:09:59.379Z,1005.44
2018-11-02T11:10:57.744Z,1005.41
2018-11-02T11:11:55.351Z,1005.43
2018-11-02T11:12:54.955Z,1005.4
2018-11-02T11:13:52.654Z,1005.5
2018-11-02T11:14:49.863Z,1005.5
2018-11-02T11:15:53.023Z,1005.52
2018-11-02T11:16:58.083Z,1005.5
2018-11-02T11:17:57.199Z,1005.4
2018-11-02T11:18:56.044Z,1005.49
2018-11-02T11:19:54.099Z,1005.45
2018-11-02T11:20:51.564Z,1005.58
2018-11-02T11:21:49.966Z,1005.55
2018-11-02T11:22:48.470Z,1005.55
2018-11-02T11:23:47.787Z,1005.58
2018-11-02T11:24:45.581Z,1005.53
2018-11-02T11:25:44.611Z,1005.53
2018-11-02T11:26:45.064Z,1005.52
2018-11-02T11:27:44.085Z,1005.52
2018-11-02T11:28:43.312Z,1005.51
2018-11-02T11:29:54.143Z,1005.61
2018-11-02T11:30:53.690Z,1005.45
2018-11-02T11:31:52.429Z,1005.64
2018-11-02T11:32:49.943Z,1005.7
2018-11-02T11:33:51.406Z,1005.62
2018-11-02T11:34:48.742Z,1005.62
2018-11-02T11:35:46.745Z,1005.64
2018-11-02T11:36:46.115Z,1005.62
2018-11-02T11:37:52.401Z,1005.68
2018-11-02T11:38:48.199Z,1005.68
2018-11-02T11:39:51.675Z,1005.71
2018-11-02T11:40:49.610Z,1005.68
2018-11-02T11:41:47.899Z,1005.76
2018-11-02T11:42:46.036Z,1005.7
2018-11-02T11:43:45.277Z,1005.71
2018-11-02T11:44:48.966Z,1005.62
2018-11-02T11:45:57.558Z,1005.7
2018-11-02T11:46:56.117Z,1005.76
2018-11-02T11:47:57.179Z,1005.76
2018-11-02T11:48:54.890Z,1005.76
2018-11-02T11:49:52.099Z,1005.76
2018-11-02T11:50:50.961Z,1005.68
2018-11-02T11:51:50.932Z,1005.71
2018-11-02T11:52:48.429Z,1005.7
2018-11-02T11:53:46.659Z,1005.65
2018-11-02T11:54:50.102Z,1005.71
2018-11-02T11:55:47.355Z,1005.68
2018-11-02T11:56:47.737Z,1005.62
2018-11-02T11:57:51.297Z,1005.55
2018-11-02T11:58:55.306Z,1005.58
2018-11-02T11:59:55.559Z,1005.73
2018-11-02T12:00:54.241Z,1005.68
2018-11-02T12:01:59.518Z,1005.68
2018-11-02T12:03:11.227Z,1005.7
2018-11-02T12:04:12.615Z,1005.71
2018-11-02T12:05:18.363Z,1005.77
2018-11-02T12:06:16.417Z,1005.68
2018-11-02T12:07:14.589Z,1005.71
2018-11-02T12:08:14.204Z,1005.72
2018-11-02T12:09:22.279Z,1005.72
2018-11-02T12:10:28.788Z,1005.77
2018-11-02T12:11:32.397Z,1005.74
2018-11-02T12:12:35.405Z,1005.72
2018-11-02T12:13:33.842Z,1005.78
2018-11-02T12:14:32.435Z,1005.78
2018-11-02T12:15:36.216Z,1005.69
2018-11-02T12:16:33.714Z,1005.88
2018-11-02T12:17:32.971Z,1005.92